Time;durP1;ratioP1;P1;durP2;ratioP2;P2;SDS_P1;SDS_P2;PMS_P1;PMS_P2;Temp;Humidity;BMP_temperature;BMP_pressure;BME280_temperature;BME280_humidity;BME280_pressure;Samples;Min_cycle;Max_cycle;Signal;HPM_P1;HPM_P2
2021/06/09 00:01:23;;;;;;;9.43;8.52;;;;;;;;;;5066290;28;20105;-82
2021/06/09 00:03:49;;;;;;;9.18;8.27;;;;;;;;;;5064987;28;20030;-82
2021/06/09 00:06:15;;;;;;;9.15;8.25;;;;;;;;;;5050817;28;20033;-82
2021/06/09 00:08:41;;;;;;;11.13;8.48;;;;;;;;;;5052710;28;20056;-81
2021/06/09 00:11:07;;;;;;;7.97;7.32;;;;;;;;;;5052362;28;20018;-81
2021/06/09 00:13:34;;;;;;;8.10;7.28;;;;;;;;;;5053961;28;20104;-81
2021/06/09 00:16:02;;;;;;;7.45;6.85;;;;;;;;;;5049052;28;20091;-83
2021/06/09 00:18:28;;;;;;;11.25;9.73;;;;;;;;;;5046791;28;20033;-81
2021/06/09 00:20:54;;;;;;;10.68;9.60;;;;;;;;;;5073861;28;20052;-80
2021/06/09 00:23:25;;;;;;;8.20;7.50;;;;;;;;;;5085809;28;20037;-82
2021/06/09 00:25:53;;;;;;;7.45;6.75;;;;;;;;;;5086007;28;20120;-82
2021/06/09 00:28:19;;;;;;;7.65;6.95;;;;;;;;;;5068724;28;20025;-82
2021/06/09 00:30:46;;;;;;;9.55;7.57;;;;;;;;;;5065561;28;20025;-83
2021/06/09 00:33:12;;;;;;;10.00;7.28;;;;;;;;;;5066628;28;20039;-81
2021/06/09 00:35:38;;;;;;;7.97;7.25;;;;;;;;;;5056254;28;20033;-83
2021/06/09 00:38:05;;;;;;;7.50;6.90;;;;;;;;;;5045611;28;20021;-83
2021/06/09 00:40:35;;;;;;;8.05;7.35;;;;;;;;;;5045836;28;20021;-83
2021/06/09 00:43:07;;;;;;;8.93;8.02;;;;;;;;;;5045297;28;20041;-83
2021/06/09 00:45:34;;;;;;;10.15;9.25;;;;;;;;;;5044841;28;20049;-83
2021/06/09 00:48:00;;;;;;;9.30;8.40;;;;;;;;;;5046892;28;20030;-83
2021/06/09 00:50:26;;;;;;;9.00;7.78;;;;;;;;;;5051544;28;20032;-82
2021/06/09 00:52:53;;;;;;;9.52;8.63;;;;;;;;;;5050017;28;20037;-83
2021/06/09 00:55:19;;;;;;;8.95;8.05;;;;;;;;;;5063581;28;20048;-83
2021/06/09 00:57:46;;;;;;;11.95;10.75;;;;;;;;;;5066646;28;20028;-81
2021/06/09 01:00:13;;;;;;;9.68;8.77;;;;;;;;;;5065865;28;20025;-82
2021/06/09 01:02:39;;;;;;;10.70;9.23;;;;;;;;;;5068807;28;20504;-80
2021/06/09 01:05:06;;;;;;;12.73;9.80;;;;;;;;;;5068609;28;20108;-81
2021/06/09 01:07:39;;;;;;;9.40;8.50;;;;;;;;;;5049303;28;20036;-82
2021/06/09 01:10:06;;;;;;;9.05;8.25;;;;;;;;;;5048899;28;20028;-82
2021/06/09 01:12:32;;;;;;;10.57;9.63;;;;;;;;;;5051304;28;20085;-81
2021/06/09 01:14:58;;;;;;;11.00;9.88;;;;;;;;;;5051189;28;20076;-81
2021/06/09 01:17:26;;;;;;;10.02;9.13;;;;;;;;;;5050626;28;20025;-82
2021/06/09 01:19:52;;;;;;;9.25;8.35;;;;;;;;;;5057255;28;20025;-82
2021/06/09 01:22:18;;;;;;;8.77;7.97;;;;;;;;;;5062037;28;20060;-82
2021/06/09 01:24:44;;;;;;;8.50;7.68;;;;;;;;;;5085288;28;20045;-82
2021/06/09 01:27:11;;;;;;;7.57;6.88;;;;;;;;;;5060756;28;20043;-81
2021/06/09 01:29:37;;;;;;;7.05;6.45;;;;;;;;;;5050490;28;20030;-82
2021/06/09 01:32:04;;;;;;;11.70;8.55;;;;;;;;;;5047575;28;20061;-82
2021/06/09 01:34:30;;;;;;;8.50;7.53;;;;;;;;;;5054314;28;20056;-80
2021/06/09 01:36:56;;;;;;;7.13;6.53;;;;;;;;;;5053557;28;20033;-81
2021/06/09 01:39:22;;;;;;;8.02;7.22;;;;;;;;;;5053158;28;20076;-82
2021/06/09 01:41:49;;;;;;;8.13;7.32;;;;;;;;;;5077029;28;20025;-82
2021/06/09 01:44:16;;;;;;;10.38;7.80;;;;;;;;;;5084708;28;20052;-82
2021/06/09 01:46:42;;;;;;;8.50;7.70;;;;;;;;;;5049848;28;20026;-82
2021/06/09 01:49:09;;;;;;;9.00;8.10;;;;;;;;;;5049272;28;20057;-82
2021/06/09 01:51:36;;;;;;;9.05;8.10;;;;;;;;;;5048560;28;20010;-82
2021/06/09 01:54:03;;;;;;;11.25;9.23;;;;;;;;;;5048634;28;20160;-82
2021/06/09 01:56:29;;;;;;;8.70;8.00;;;;;;;;;;5048387;28;20097;-82
2021/06/09 01:58:55;;;;;;;8.23;7.43;;;;;;;;;;5050113;28;20029;-82
2021/06/09 02:01:22;;;;;;;8.55;7.65;;;;;;;;;;5053719;28;20083;-81
2021/06/09 02:03:49;;;;;;;9.20;8.13;;;;;;;;;;5052868;28;20023;-82
2021/06/09 02:06:15;;;;;;;8.93;8.00;;;;;;;;;;5053915;28;20048;-82
2021/06/09 02:08:41;;;;;;;7.60;6.90;;;;;;;;;;5050679;28;20124;-82
2021/06/09 02:11:07;;;;;;;7.60;6.88;;;;;;;;;;5054924;28;20049;-82
2021/06/09 02:13:35;;;;;;;6.68;6.07;;;;;;;;;;5067010;28;20097;-82
2021/06/09 02:16:01;;;;;;;8.20;6.18;;;;;;;;;;5067437;28;20020;-82
2021/06/09 02:18:28;;;;;;;6.80;6.20;;;;;;;;;;5066964;28;20028;-82
2021/06/09 02:20:56;;;;;;;6.45;5.85;;;;;;;;;;5068904;28;20021;-81
2021/06/09 02:23:23;;;;;;;7.25;6.55;;;;;;;;;;5070583;28;20025;-83
2021/06/09 02:25:50;;;;;;;7.57;6.97;;;;;;;;;;5054802;28;20026;-81
2021/06/09 02:28:18;;;;;;;6.85;6.25;;;;;;;;;;5054120;28;20101;-81
2021/06/09 02:30:45;;;;;;;6.50;5.90;;;;;;;;;;5044915;28;20032;-82
2021/06/09 02:33:12;;;;;;;6.80;6.07;;;;;;;;;;5037776;28;20033;-82
2021/06/09 02:38:15;;;;;;;8.23;7.43;;;;;;;;;;5512999;22;20060;-81
2021/06/09 02:40:41;;;;;;;8.77;7.88;;;;;;;;;;5034508;28;20025;-81
2021/06/09 02:43:09;;;;;;;8.70;7.90;;;;;;;;;;5055314;28;20144;-81
2021/06/09 02:45:35;;;;;;;8.38;7.40;;;;;;;;;;5058258;28;20025;-81
2021/06/09 02:48:03;;;;;;;9.23;7.15;;;;;;;;;;5058424;28;20033;-81
2021/06/09 02:50:30;;;;;;;9.15;7.68;;;;;;;;;;5051370;28;20055;-81
2021/06/09 02:53:02;;;;;;;8.88;8.13;;;;;;;;;;5095773;22;20040;-84
2021/06/09 02:55:34;;;;;;;8.93;8.10;;;;;;;;;;5097583;28;20008;-85
2021/06/09 02:58:00;;;;;;;7.43;6.78;;;;;;;;;;5097285;28;20051;-84
2021/06/09 03:00:30;;;;;;;8.13;7.38;;;;;;;;;;5079759;28;20044;-86
2021/06/09 03:02:56;;;;;;;8.68;7.88;;;;;;;;;;5115027;28;20081;-84
2021/06/09 03:05:26;;;;;;;10.77;9.77;;;;;;;;;;5100518;28;20020;-83
2021/06/09 03:08:00;;;;;;;8.55;7.65;;;;;;;;;;5100357;28;20024;-83
2021/06/09 03:10:37;;;;;;;7.20;6.60;;;;;;;;;;5113366;28;20033;-81
2021/06/09 03:13:08;;;;;;;6.60;6.00;;;;;;;;;;5095739;28;20033;-80
2021/06/09 03:15:39;;;;;;;7.15;6.53;;;;;;;;;;5096018;28;20032;-83
2021/06/09 03:18:21;;;;;;;7.78;7.07;;;;;;;;;;5094170;28;20043;-81
2021/06/09 03:21:02;;;;;;;8.13;7.30;;;;;;;;;;5090543;28;20044;-81
2021/06/09 03:23:28;;;;;;;8.48;7.68;;;;;;;;;;5080503;28;20025;-81
2021/06/09 03:25:57;;;;;;;9.57;7.78;;;;;;;;;;5078652;28;20052;-81
2021/06/09 03:28:43;;;;;;;10.85;9.75;;;;;;;;;;5078086;28;20021;-79
2021/06/09 03:31:12;;;;;;;8.30;7.50;;;;;;;;;;5077944;28;20024;-80
2021/06/09 03:33:43;;;;;;;7.53;6.82;;;;;;;;;;5080778;28;20028;-79
2021/06/09 03:36:11;;;;;;;7.50;6.72;;;;;;;;;;5079445;28;20027;-80
2021/06/09 03:38:47;;;;;;;8.10;7.15;;;;;;;;;;5092271;28;20029;-81
2021/06/09 03:41:15;;;;;;;6.97;6.38;;;;;;;;;;5080572;28;20096;-80
2021/06/09 03:43:43;;;;;;;10.00;8.60;;;;;;;;;;5076825;28;20029;-81
2021/06/09 03:46:09;;;;;;;9.10;8.27;;;;;;;;;;5078887;28;20069;-80
2021/06/09 03:48:39;;;;;;;9.63;8.73;;;;;;;;;;5087294;28;20046;-81
2021/06/09 03:51:06;;;;;;;7.22;6.63;;;;;;;;;;5100663;28;20031;-79
2021/06/09 03:53:33;;;;;;;7.72;6.68;;;;;;;;;;5088720;28;20047;-79
2021/06/09 03:56:01;;;;;;;7.55;6.95;;;;;;;;;;5096483;28;20028;-80
2021/06/09 03:58:28;;;;;;;7.72;7.03;;;;;;;;;;5100585;28;20496;-82
2021/06/09 04:00:55;;;;;;;8.40;7.60;;;;;;;;;;5101699;28;20028;-81
2021/06/09 04:03:23;;;;;;;9.52;6.65;;;;;;;;;;5102456;28;20016;-81
2021/06/09 04:05:49;;;;;;;7.50;6.55;;;;;;;;;;5101509;28;20035;-80
2021/06/09 04:08:19;;;;;;;8.73;7.78;;;;;;;;;;5099851;28;20024;-81
2021/06/09 04:10:47;;;;;;;9.18;8.27;;;;;;;;;;5084963;28;20024;-80
2021/06/09 04:13:13;;;;;;;9.60;8.70;;;;;;;;;;5103461;28;20016;-81
2021/06/09 04:15:40;;;;;;;11.02;9.85;;;;;;;;;;5102234;28;20020;-82
2021/06/09 04:18:07;;;;;;;8.20;7.40;;;;;;;;;;5102077;28;20028;-81
2021/06/09 04:20:34;;;;;;;8.70;7.90;;;;;;;;;;5098595;28;20083;-81
2021/06/09 04:23:00;;;;;;;7.47;6.88;;;;;;;;;;5081375;28;20391;-81
2021/06/09 04:25:27;;;;;;;7.55;6.85;;;;;;;;;;5073379;28;20021;-82
2021/06/09 04:27:53;;;;;;;7.93;7.22;;;;;;;;;;5082993;28;20024;-81
2021/06/09 04:30:20;;;;;;;6.68;6.07;;;;;;;;;;5083843;28;20033;-81
2021/06/09 04:32:47;;;;;;;5.93;5.32;;;;;;;;;;5085825;28;20471;-81
2021/06/09 04:35:14;;;;;;;5.97;5.47;;;;;;;;;;5086179;28;20032;-81
2021/06/09 04:37:40;;;;;;;7.40;6.70;;;;;;;;;;5072706;28;20032;-81
2021/06/09 04:40:06;;;;;;;9.40;8.50;;;;;;;;;;5091555;28;20036;-81
2021/06/09 04:42:33;;;;;;;9.30;8.40;;;;;;;;;;5085373;28;20574;-85
2021/06/09 04:44:59;;;;;;;10.70;8.05;;;;;;;;;;5082683;28;20094;-84
2021/06/09 04:47:35;;;;;;;8.60;7.80;;;;;;;;;;5081225;28;20461;-86
2021/06/09 04:50:01;;;;;;;9.68;8.75;;;;;;;;;;5064865;28;20020;-85
2021/06/09 04:52:28;;;;;;;9.05;8.25;;;;;;;;;;5068305;28;20068;-86
2021/06/09 04:54:55;;;;;;;10.60;8.57;;;;;;;;;;5068084;28;20393;-86
2021/06/09 04:57:21;;;;;;;8.90;8.07;;;;;;;;;;5078675;28;20020;-86
2021/06/09 04:59:47;;;;;;;12.27;9.75;;;;;;;;;;5099015;28;20031;-86
2021/06/09 05:02:13;;;;;;;11.55;10.48;;;;;;;;;;5083385;28;20031;-85
2021/06/09 05:04:39;;;;;;;12.15;10.50;;;;;;;;;;5060255;28;20035;-87
2021/06/09 05:07:05;;;;;;;9.50;8.05;;;;;;;;;;5060826;28;20036;-87
2021/06/09 05:09:31;;;;;;;8.90;8.00;;;;;;;;;;5061407;28;20027;-86
2021/06/09 05:12:27;;;;;;;6.55;5.95;;;;;;;;;;5079372;28;21026;-86
2021/06/09 05:15:07;;;;;;;6.43;5.82;;;;;;;;;;5045119;28;20040;-86
2021/06/09 05:17:46;;;;;;;7.03;6.32;;;;;;;;;;5079415;28;20028;-86
2021/06/09 05:20:17;;;;;;;4.93;4.43;;;;;;;;;;5061139;28;20025;-87
2021/06/09 05:22:45;;;;;;;4.35;4.05;;;;;;;;;;5066350;28;20028;-86
2021/06/09 05:25:12;;;;;;;4.72;4.30;;;;;;;;;;5072411;28;20024;-86
2021/06/09 05:27:39;;;;;;;5.40;4.90;;;;;;;;;;5080100;28;20024;-86
2021/06/09 05:30:06;;;;;;;8.10;7.40;;;;;;;;;;5098478;28;20539;-85
2021/06/09 05:32:32;;;;;;;9.00;8.15;;;;;;;;;;5079700;28;20052;-86
2021/06/09 05:34:59;;;;;;;9.35;8.45;;;;;;;;;;5098487;28;20069;-85
2021/06/09 05:37:25;;;;;;;9.60;6.70;;;;;;;;;;5072990;28;20025;-86
2021/06/09 05:39:54;;;;;;;5.47;5.07;;;;;;;;;;5072040;28;20020;-86
2021/06/09 05:42:21;;;;;;;6.80;6.15;;;;;;;;;;5081671;28;20030;-85
2021/06/09 05:44:53;;;;;;;7.90;6.32;;;;;;;;;;5063603;28;20021;-84
2021/06/09 05:47:20;;;;;;;8.38;6.10;;;;;;;;;;5059218;28;20115;-84
2021/06/09 05:49:46;;;;;;;9.65;7.53;;;;;;;;;;5077541;28;20400;-83
2021/06/09 05:52:12;;;;;;;8.52;7.72;;;;;;;;;;5082394;28;20153;-84
2021/06/09 05:54:44;;;;;;;7.80;6.97;;;;;;;;;;5076199;28;20157;-85
2021/06/09 05:57:11;;;;;;;8.35;7.53;;;;;;;;;;5078379;28;20017;-84
2021/06/09 05:59:40;;;;;;;7.65;7.00;;;;;;;;;;5078625;28;20033;-84
2021/06/09 06:02:06;;;;;;;9.52;6.35;;;;;;;;;;5061752;28;20688;-85
2021/06/09 06:04:33;;;;;;;8.38;7.68;;;;;;;;;;5059561;28;20025;-85
2021/06/09 06:06:59;;;;;;;10.00;8.30;;;;;;;;;;5078281;28;20028;-85
2021/06/09 06:09:26;;;;;;;8.18;7.40;;;;;;;;;;5076360;28;20024;-85
2021/06/09 06:11:53;;;;;;;6.50;5.93;;;;;;;;;;5077314;28;20025;-85
2021/06/09 06:14:20;;;;;;;6.03;5.40;;;;;;;;;;5076318;28;20024;-84
2021/06/09 06:16:53;;;;;;;6.47;5.93;;;;;;;;;;5091688;28;20016;-85
2021/06/09 06:19:19;;;;;;;5.65;5.15;;;;;;;;;;5071351;28;20032;-85
2021/06/09 06:21:46;;;;;;;4.20;3.80;;;;;;;;;;5078260;28;20031;-84
2021/06/09 06:24:16;;;;;;;4.93;4.57;;;;;;;;;;5078632;28;20020;-84
2021/06/09 06:26:42;;;;;;;5.20;4.70;;;;;;;;;;5096966;28;20526;-85
2021/06/09 06:29:10;;;;;;;4.60;4.30;;;;;;;;;;5080359;28;20074;-85
2021/06/09 06:31:36;;;;;;;4.90;4.50;;;;;;;;;;5078837;28;20115;-84
2021/06/09 06:34:03;;;;;;;4.57;4.18;;;;;;;;;;5096684;28;20078;-84
2021/06/09 06:36:30;;;;;;;10.13;7.05;;;;;;;;;;5077300;28;20021;-83
2021/06/09 06:38:57;;;;;;;4.82;4.47;;;;;;;;;;5075894;28;20167;-84
2021/06/09 06:41:23;;;;;;;4.85;4.45;;;;;;;;;;5076483;28;20023;-84
2021/06/09 06:43:51;;;;;;;8.57;7.78;;;;;;;;;;5059524;28;20039;-84
2021/06/09 06:46:18;;;;;;;7.55;6.80;;;;;;;;;;5077029;28;20016;-84
2021/06/09 06:48:46;;;;;;;8.07;7.38;;;;;;;;;;5082459;28;20017;-84
2021/06/09 06:51:14;;;;;;;6.82;5.45;;;;;;;;;;5095743;28;20036;-84
2021/06/09 06:53:44;;;;;;;5.03;4.50;;;;;;;;;;5095779;28;20064;-85
2021/06/09 06:56:10;;;;;;;5.45;4.95;;;;;;;;;;5077418;28;20101;-84
2021/06/09 06:58:37;;;;;;;5.20;4.70;;;;;;;;;;5097303;28;20028;-84
2021/06/09 07:01:05;;;;;;;4.80;4.32;;;;;;;;;;5098244;28;20054;-84
2021/06/09 07:03:31;;;;;;;5.13;4.63;;;;;;;;;;5097257;28;20060;-85
2021/06/09 07:05:58;;;;;;;4.40;4.05;;;;;;;;;;5108839;28;20034;-84
2021/06/09 07:08:24;;;;;;;7.80;6.95;;;;;;;;;;5092477;28;20031;-85
2021/06/09 07:10:54;;;;;;;7.88;7.07;;;;;;;;;;5106998;28;20020;-85
2021/06/09 07:13:21;;;;;;;6.57;5.95;;;;;;;;;;5078704;28;20127;-85
2021/06/09 07:15:48;;;;;;;7.90;7.20;;;;;;;;;;5085187;28;20449;-84
2021/06/09 07:18:15;;;;;;;9.25;7.95;;;;;;;;;;5099244;28;20016;-83
2021/06/09 07:20:42;;;;;;;8.23;7.43;;;;;;;;;;5093362;28;20051;-83
2021/06/09 07:23:08;;;;;;;9.13;8.10;;;;;;;;;;5085167;28;20032;-83
2021/06/09 07:25:34;;;;;;;7.53;6.82;;;;;;;;;;5080018;28;20031;-83
2021/06/09 07:28:04;;;;;;;6.90;6.28;;;;;;;;;;5100552;28;20024;-83
2021/06/09 07:30:34;;;;;;;8.52;7.57;;;;;;;;;;5106885;28;20019;-81
2021/06/09 07:33:01;;;;;;;13.52;10.60;;;;;;;;;;5100019;28;20025;-83
2021/06/09 07:35:27;;;;;;;17.17;11.05;;;;;;;;;;5081886;28;20492;-83
2021/06/09 07:37:58;;;;;;;11.10;9.73;;;;;;;;;;5065146;28;20024;-83
2021/06/09 07:40:27;;;;;;;11.68;10.07;;;;;;;;;;5080558;28;20020;-83
2021/06/09 07:42:57;;;;;;;11.77;10.35;;;;;;;;;;5079756;28;20485;-83
2021/06/09 07:45:24;;;;;;;9.27;8.32;;;;;;;;;;5080066;28;20032;-83
2021/06/09 07:47:51;;;;;;;10.63;8.57;;;;;;;;;;5082181;28;20021;-83
2021/06/09 07:50:26;;;;;;;16.63;11.00;;;;;;;;;;5064896;28;20417;-83
2021/06/09 07:52:54;;;;;;;9.27;8.43;;;;;;;;;;5069062;28;20062;-84
2021/06/09 07:55:20;;;;;;;11.65;10.45;;;;;;;;;;5070324;28;20065;-84
2021/06/09 07:57:46;;;;;;;8.10;7.30;;;;;;;;;;5087078;28;20054;-85
2021/06/09 08:00:13;;;;;;;10.40;9.40;;;;;;;;;;5075004;28;20065;-84
2021/06/09 08:02:43;;;;;;;12.55;9.10;;;;;;;;;;5100219;28;20047;-84
2021/06/09 08:05:11;;;;;;;10.45;9.45;;;;;;;;;;5066273;28;20485;-84
2021/06/09 08:07:41;;;;;;;9.57;8.05;;;;;;;;;;5060841;28;20077;-84
2021/06/09 08:10:08;;;;;;;10.95;9.70;;;;;;;;;;5079180;28;20412;-85
2021/06/09 08:12:35;;;;;;;10.88;9.77;;;;;;;;;;5060474;28;20032;-85
2021/06/09 08:15:02;;;;;;;6.68;6.07;;;;;;;;;;5078611;28;20076;-84
2021/06/09 08:17:28;;;;;;;10.30;8.32;;;;;;;;;;5078010;28;20047;-83
2021/06/09 08:19:54;;;;;;;13.20;9.35;;;;;;;;;;5102191;28;20431;-85
2021/06/09 08:22:20;;;;;;;11.68;10.57;;;;;;;;;;5082527;28;20024;-85
2021/06/09 08:24:46;;;;;;;8.82;7.97;;;;;;;;;;5080655;28;20055;-85
2021/06/09 08:27:12;;;;;;;8.75;7.95;;;;;;;;;;5071312;28;20052;-85
2021/06/09 08:29:39;;;;;;;11.13;9.77;;;;;;;;;;5082551;28;20027;-85
2021/06/09 08:32:06;;;;;;;11.25;10.10;;;;;;;;;;5100469;28;20365;-84
2021/06/09 08:34:33;;;;;;;9.10;8.30;;;;;;;;;;5101497;28;20032;-84
2021/06/09 08:36:59;;;;;;;12.32;11.13;;;;;;;;;;5100336;28;20023;-85
2021/06/09 08:39:26;;;;;;;8.15;7.32;;;;;;;;;;5093497;28;20023;-85
2021/06/09 08:41:54;;;;;;;14.10;9.88;;;;;;;;;;5065612;28;20525;-85
2021/06/09 08:44:21;;;;;;;14.07;12.70;;;;;;;;;;5063217;28;20407;-85
2021/06/09 08:46:47;;;;;;;10.30;9.20;;;;;;;;;;5078474;28;20048;-86
2021/06/09 08:49:16;;;;;;;10.20;9.20;;;;;;;;;;5079308;28;20388;-85
2021/06/09 08:51:42;;;;;;;11.50;10.30;;;;;;;;;;5083524;28;20033;-84
2021/06/09 08:54:09;;;;;;;11.80;9.40;;;;;;;;;;5083072;28;20107;-84
2021/06/09 08:56:37;;;;;;;11.55;10.43;;;;;;;;;;5105269;28;20024;-84
2021/06/09 08:59:03;;;;;;;11.40;10.38;;;;;;;;;;5104451;28;20012;-83
2021/06/09 09:01:32;;;;;;;13.02;11.65;;;;;;;;;;5101281;28;20035;-84
2021/06/09 09:03:58;;;;;;;15.38;12.50;;;;;;;;;;5098888;28;20032;-84
2021/06/09 09:06:24;;;;;;;11.30;10.20;;;;;;;;;;5102200;28;20024;-82
2021/06/09 09:08:53;;;;;;;11.88;10.77;;;;;;;;;;5098566;28;20081;-83
2021/06/09 09:11:20;;;;;;;8.50;7.70;;;;;;;;;;5100768;28;20024;-82
2021/06/09 09:13:46;;;;;;;12.38;11.13;;;;;;;;;;5115140;28;20070;-80
2021/06/09 09:16:12;;;;;;;11.13;10.13;;;;;;;;;;5100478;28;20459;-82
2021/06/09 09:18:56;;;;;;;12.63;11.43;;;;;;;;;;5060841;28;20035;-82
2021/06/09 09:21:39;;;;;;;10.52;9.43;;;;;;;;;;5062232;28;20024;-82
2021/06/09 09:24:08;;;;;;;10.65;8.95;;;;;;;;;;5071135;28;20479;-82
2021/06/09 09:26:35;;;;;;;10.88;9.40;;;;;;;;;;5100416;28;20124;-83
2021/06/09 09:29:34;;;;;;;9.48;8.60;;;;;;;;;;5101009;28;20024;-81
2021/06/09 09:32:09;;;;;;;9.77;8.88;;;;;;;;;;5044933;28;20107;-82
2021/06/09 09:34:48;;;;;;;12.48;10.50;;;;;;;;;;5082632;28;20040;-83
2021/06/09 09:37:21;;;;;;;9.40;8.50;;;;;;;;;;5082784;28;20028;-82
2021/06/09 09:40:07;;;;;;;13.98;9.05;;;;;;;;;;5085585;28;20024;-83
2021/06/09 09:42:34;;;;;;;9.75;8.85;;;;;;;;;;5084849;28;20036;-82
2021/06/09 09:45:15;;;;;;;8.25;7.50;;;;;;;;;;5084309;28;20078;-82
2021/06/09 09:47:41;;;;;;;9.80;8.80;;;;;;;;;;5062566;28;20040;-82
2021/06/09 09:50:08;;;;;;;8.68;7.90;;;;;;;;;;5081283;28;20235;-83
2021/06/09 09:52:48;;;;;;;9.07;8.20;;;;;;;;;;5084622;28;20492;-82
2021/06/09 09:55:14;;;;;;;8.38;7.57;;;;;;;;;;5072689;28;20381;-82
2021/06/09 09:57:40;;;;;;;9.30;8.45;;;;;;;;;;5096598;28;20032;-82
2021/06/09 10:00:07;;;;;;;10.20;9.27;;;;;;;;;;5079541;28;20033;-81
2021/06/09 10:02:33;;;;;;;8.75;7.85;;;;;;;;;;5080173;28;20024;-82
2021/06/09 10:05:13;;;;;;;12.27;9.18;;;;;;;;;;5080212;28;20032;-82
2021/06/09 10:07:39;;;;;;;8.52;7.82;;;;;;;;;;5077747;28;20020;-81
2021/06/09 10:10:07;;;;;;;8.32;7.57;;;;;;;;;;5107250;28;20008;-81
2021/06/09 10:12:33;;;;;;;9.88;8.60;;;;;;;;;;5111003;28;20028;-82
2021/06/09 10:14:59;;;;;;;9.32;8.13;;;;;;;;;;5105218;28;20492;-82
2021/06/09 10:17:27;;;;;;;10.13;9.20;;;;;;;;;;5100350;28;20031;-83
2021/06/09 10:19:58;;;;;;;8.90;8.05;;;;;;;;;;5101277;28;20020;-83
2021/06/09 10:22:28;;;;;;;11.57;9.88;;;;;;;;;;5076131;28;20017;-82
2021/06/09 10:24:56;;;;;;;10.52;8.52;;;;;;;;;;5070269;28;20055;-82
2021/06/09 10:27:34;;;;;;;8.30;7.55;;;;;;;;;;5061720;28;20026;-82
2021/06/09 10:30:00;;;;;;;13.40;9.35;;;;;;;;;;5079393;28;20028;-82
2021/06/09 10:32:27;;;;;;;12.07;8.23;;;;;;;;;;5078564;28;20024;-82
2021/06/09 10:34:54;;;;;;;10.15;9.13;;;;;;;;;;5078990;28;20020;-82
2021/06/09 10:37:20;;;;;;;8.13;6.88;;;;;;;;;;5060627;28;20040;-83
2021/06/09 10:39:46;;;;;;;9.07;8.27;;;;;;;;;;5060837;28;20032;-82
2021/06/09 10:42:14;;;;;;;7.65;6.95;;;;;;;;;;5060795;28;20027;-82
2021/06/09 10:44:41;;;;;;;7.07;6.15;;;;;;;;;;5061037;28;20139;-82
2021/06/09 10:47:13;;;;;;;7.30;6.57;;;;;;;;;;5093353;28;20061;-82
2021/06/09 10:49:41;;;;;;;8.45;7.75;;;;;;;;;;5099073;28;20437;-82
2021/06/09 10:52:08;;;;;;;8.00;6.80;;;;;;;;;;5077791;28;20024;-82
2021/06/09 10:54:35;;;;;;;8.52;7.72;;;;;;;;;;5086423;28;20033;-82
2021/06/09 10:57:02;;;;;;;7.60;6.90;;;;;;;;;;5078586;28;20024;-82
2021/06/09 10:59:31;;;;;;;13.02;7.38;;;;;;;;;;5077673;28;20048;-82
2021/06/09 11:02:01;;;;;;;7.60;7.00;;;;;;;;;;5079076;28;20020;-82
2021/06/09 11:04:27;;;;;;;6.63;6.03;;;;;;;;;;5082911;28;20059;-82
2021/06/09 11:06:55;;;;;;;6.65;6.15;;;;;;;;;;5079514;28;20024;-82
2021/06/09 11:09:22;;;;;;;6.53;6.03;;;;;;;;;;5099113;28;20028;-82
2021/06/09 11:12:09;;;;;;;8.63;6.40;;;;;;;;;;5082615;28;20035;-82
2021/06/09 11:14:44;;;;;;;7.70;6.97;;;;;;;;;;5096100;28;20412;-82
2021/06/09 11:17:10;;;;;;;7.15;6.55;;;;;;;;;;5079764;28;20077;-82
2021/06/09 11:19:42;;;;;;;7.88;7.07;;;;;;;;;;5081666;28;20032;-82
2021/06/09 11:22:15;;;;;;;8.07;7.28;;;;;;;;;;5083835;28;20078;-82
2021/06/09 11:24:41;;;;;;;7.80;7.20;;;;;;;;;;5098206;28;20119;-82
2021/06/09 11:27:28;;;;;;;6.72;6.10;;;;;;;;;;5092325;28;20029;-83
2021/06/09 11:29:54;;;;;;;8.77;7.95;;;;;;;;;;5095147;28;20110;-82
2021/06/09 11:32:22;;;;;;;7.15;6.40;;;;;;;;;;5099900;28;20039;-82
2021/06/09 11:34:58;;;;;;;10.52;6.53;;;;;;;;;;5099826;28;20020;-83
2021/06/09 11:37:24;;;;;;;8.50;6.40;;;;;;;;;;5100199;28;20356;-82
2021/06/09 11:40:01;;;;;;;6.82;6.22;;;;;;;;;;5081495;28;20020;-82
2021/06/09 11:42:27;;;;;;;5.70;5.20;;;;;;;;;;5099183;28;20004;-82
2021/06/09 11:44:53;;;;;;;5.13;4.70;;;;;;;;;;5099648;28;20039;-82
2021/06/09 11:47:29;;;;;;;6.35;5.65;;;;;;;;;;5083188;28;20087;-82
2021/06/09 11:49:56;;;;;;;6.05;5.50;;;;;;;;;;5081489;28;20024;-81
2021/06/09 11:52:22;;;;;;;9.30;6.15;;;;;;;;;;5093357;28;20027;-83
2021/06/09 11:55:07;;;;;;;5.57;5.18;;;;;;;;;;5087703;28;20090;-81
2021/06/09 11:57:34;;;;;;;5.80;5.30;;;;;;;;;;5080191;28;20048;-82
2021/06/09 12:00:05;;;;;;;5.93;5.45;;;;;;;;;;5079232;28;20047;-82
2021/06/09 12:02:32;;;;;;;5.65;5.25;;;;;;;;;;5079257;28;20032;-83
2021/06/09 12:04:58;;;;;;;6.72;5.78;;;;;;;;;;5079842;28;20037;-83
2021/06/09 12:07:26;;;;;;;6.70;5.68;;;;;;;;;;5079247;28;20051;-82
2021/06/09 12:09:55;;;;;;;5.65;5.03;;;;;;;;;;5078125;28;20032;-82
2021/06/09 12:12:22;;;;;;;6.00;5.50;;;;;;;;;;5084743;28;20472;-83
2021/06/09 12:14:49;;;;;;;7.10;5.82;;;;;;;;;;5089816;28;20160;-82
2021/06/09 12:17:16;;;;;;;5.57;5.18;;;;;;;;;;5101921;28;20391;-82
2021/06/09 12:19:43;;;;;;;5.18;4.57;;;;;;;;;;5088746;28;20103;-82
2021/06/09 12:22:11;;;;;;;5.28;4.88;;;;;;;;;;5083437;28;20492;-82
2021/06/09 12:24:37;;;;;;;6.43;5.10;;;;;;;;;;5094179;28;20446;-82
2021/06/09 12:27:07;;;;;;;6.50;5.95;;;;;;;;;;5102605;28;20132;-81
2021/06/09 12:29:34;;;;;;;5.97;5.15;;;;;;;;;;5101852;28;20028;-81
2021/06/09 12:32:01;;;;;;;6.43;5.93;;;;;;;;;;5086918;28;20028;-82
2021/06/09 12:34:32;;;;;;;5.43;5.00;;;;;;;;;;5081902;28;20055;-82
2021/06/09 12:37:05;;;;;;;5.78;5.28;;;;;;;;;;5081619;28;20028;-82
2021/06/09 12:39:31;;;;;;;5.25;4.75;;;;;;;;;;5064252;28;20108;-82
2021/06/09 12:41:57;;;;;;;6.50;5.65;;;;;;;;;;5081467;28;20096;-82
2021/06/09 12:44:27;;;;;;;6.15;5.65;;;;;;;;;;5082160;28;20050;-82
2021/06/09 12:47:01;;;;;;;5.97;5.47;;;;;;;;;;5082365;28;20021;-82
2021/06/09 12:49:32;;;;;;;6.75;6.15;;;;;;;;;;5066526;28;20092;-83
2021/06/09 12:52:01;;;;;;;6.75;6.13;;;;;;;;;;5083469;28;20044;-83
2021/06/09 12:54:27;;;;;;;6.80;5.28;;;;;;;;;;5089918;28;20389;-82
2021/06/09 12:56:53;;;;;;;5.85;5.35;;;;;;;;;;5084188;28;20031;-83
2021/06/09 12:59:36;;;;;;;10.13;9.10;;;;;;;;;;5092012;28;20025;-82
2021/06/09 13:02:03;;;;;;;5.22;4.80;;;;;;;;;;5082657;28;20072;-82
2021/06/09 13:04:43;;;;;;;5.20;4.80;;;;;;;;;;5080974;28;20021;-82
2021/06/09 13:07:09;;;;;;;5.00;4.30;;;;;;;;;;5062875;28;20028;-82
2021/06/09 13:09:36;;;;;;;5.38;4.88;;;;;;;;;;5080917;28;20374;-82
2021/06/09 13:12:03;;;;;;;5.38;4.95;;;;;;;;;;5080009;28;20032;-82
2021/06/09 13:14:41;;;;;;;5.57;5.13;;;;;;;;;;5080317;28;20130;-83
2021/06/09 13:17:08;;;;;;;8.20;6.70;;;;;;;;;;5062144;28;20034;-82
2021/06/09 13:19:35;;;;;;;7.85;7.15;;;;;;;;;;5062330;28;20468;-82
2021/06/09 13:22:02;;;;;;;8.40;7.47;;;;;;;;;;5061972;28;20036;-82
2021/06/09 13:24:34;;;;;;;7.45;6.75;;;;;;;;;;5095481;28;20549;-82
2021/06/09 13:27:05;;;;;;;7.38;6.68;;;;;;;;;;5066465;28;20032;-82
2021/06/09 13:29:36;;;;;;;8.67;6.40;;;;;;;;;;5080018;28;20673;-82
2021/06/09 13:32:10;;;;;;;7.75;6.93;;;;;;;;;;5069112;28;20259;-82
2021/06/09 13:34:36;;;;;;;9.98;7.10;;;;;;;;;;5075398;28;20020;-82
2021/06/09 13:37:03;;;;;;;7.35;6.75;;;;;;;;;;5067783;28;20032;-81
2021/06/09 13:39:38;;;;;;;7.20;6.53;;;;;;;;;;5081017;28;20025;-82
2021/06/09 13:42:06;;;;;;;6.57;5.88;;;;;;;;;;5080804;28;20505;-82
2021/06/09 13:44:38;;;;;;;6.45;5.90;;;;;;;;;;5079880;28;20076;-82
2021/06/09 13:47:05;;;;;;;7.55;5.97;;;;;;;;;;5080589;28;20039;-82
2021/06/09 13:49:36;;;;;;;5.55;5.03;;;;;;;;;;5061795;28;20029;-82
2021/06/09 13:52:04;;;;;;;5.60;4.97;;;;;;;;;;5083908;28;20024;-83
2021/06/09 13:54:31;;;;;;;5.90;5.35;;;;;;;;;;5081609;28;20115;-82
2021/06/09 13:56:57;;;;;;;5.88;5.28;;;;;;;;;;5079897;28;20102;-83
2021/06/09 13:59:33;;;;;;;7.50;5.32;;;;;;;;;;5072097;28;20031;-83
2021/06/09 14:02:24;;;;;;;6.63;5.90;;;;;;;;;;5084222;28;20358;-84
2021/06/09 14:04:51;;;;;;;7.50;5.95;;;;;;;;;;5082544;28;20028;-85
2021/06/09 14:07:20;;;;;;;9.80;6.38;;;;;;;;;;5091072;28;20464;-84
2021/06/09 14:10:03;;;;;;;6.63;6.03;;;;;;;;;;5081147;28;20032;-84
2021/06/09 14:12:37;;;;;;;9.05;5.80;;;;;;;;;;5066906;28;20031;-84
2021/06/09 14:15:11;;;;;;;11.10;6.47;;;;;;;;;;5078747;28;20048;-84
2021/06/09 14:17:37;;;;;;;5.72;5.15;;;;;;;;;;5096884;28;20016;-84
2021/06/09 14:20:07;;;;;;;6.68;5.70;;;;;;;;;;5100003;28;20115;-83
2021/06/09 14:22:36;;;;;;;8.93;5.93;;;;;;;;;;5092742;28;20143;-84
2021/06/09 14:25:11;;;;;;;7.57;6.78;;;;;;;;;;5087845;28;20020;-83
2021/06/09 14:27:47;;;;;;;7.00;6.30;;;;;;;;;;5079350;28;20028;-84
2021/06/09 14:30:14;;;;;;;10.75;6.57;;;;;;;;;;5078067;28;20020;-84
2021/06/09 16:14:40;;;;;;;4.53;4.15;;;;;;;;;;5054203;22;20072;-86
2021/06/09 16:20:24;;;;;;;4.97;4.57;;;;;;;;;;4988312;28;20069;-82
2021/06/09 16:22:50;;;;;;;4.90;4.50;;;;;;;;;;5035206;28;20048;-81
2021/06/09 16:25:16;;;;;;;7.43;4.47;;;;;;;;;;5050940;28;20078;-83
2021/06/09 16:27:43;;;;;;;4.95;4.55;;;;;;;;;;5062143;28;20025;-82
2021/06/09 16:30:10;;;;;;;5.25;4.75;;;;;;;;;;5050087;28;20046;-83
2021/06/09 16:32:36;;;;;;;4.78;4.28;;;;;;;;;;5079659;28;20430;-83
2021/06/09 16:35:04;;;;;;;4.72;4.32;;;;;;;;;;5029477;28;20104;-83